Time;durP1;ratioP1;P1;durP2;ratioP2;P2;SDS_P1;SDS_P2;PMS_P1;PMS_P2;Temp;Humidity;BMP_temperature;BMP_pressure;BME280_temperature;BME280_humidity;BME280_pressure;Samples;Min_cycle;Max_cycle;Signal;HPM_P1;HPM_P2
2021/05/28 00:00:24;;;;;;;4.40;3.20;;;;;;;;;;4993330;28;20061;-44
2021/05/28 00:02:51;;;;;;;4.88;3.33;;;;;;;;;;4993451;28;20074;-45
2021/05/28 00:05:18;;;;;;;7.18;3.20;;;;;;;;;;4992840;28;20051;-43
2021/05/28 00:07:44;;;;;;;5.25;3.10;;;;;;;;;;5006884;28;20042;-43
2021/05/28 00:10:13;;;;;;;6.18;3.25;;;;;;;;;;5007804;28;20049;-43
2021/05/28 00:12:40;;;;;;;5.57;3.58;;;;;;;;;;4992880;28;20105;-44
2021/05/28 00:15:11;;;;;;;5.50;3.40;;;;;;;;;;4992911;28;20116;-56
2021/05/28 00:17:38;;;;;;;5.07;3.47;;;;;;;;;;4973793;28;20453;-47
2021/05/28 00:20:06;;;;;;;4.30;3.50;;;;;;;;;;4973716;28;20166;-43
2021/05/28 00:22:33;;;;;;;4.65;3.35;;;;;;;;;;4981393;28;20058;-43
2021/05/28 00:25:00;;;;;;;6.75;3.80;;;;;;;;;;4996676;28;20051;-46
2021/05/28 00:27:29;;;;;;;6.25;3.60;;;;;;;;;;4989761;28;20459;-45
2021/05/28 00:30:06;;;;;;;4.22;3.42;;;;;;;;;;4991348;28;20058;-44
2021/05/28 00:32:32;;;;;;;4.93;3.80;;;;;;;;;;4992887;28;20054;-45
2021/05/28 00:34:59;;;;;;;4.57;3.40;;;;;;;;;;4992924;28;20054;-44
2021/05/28 00:37:26;;;;;;;3.97;3.20;;;;;;;;;;4992069;28;20164;-46
2021/05/28 00:39:53;;;;;;;5.00;3.10;;;;;;;;;;4993161;28;20129;-42
2021/05/28 00:42:20;;;;;;;7.95;3.47;;;;;;;;;;4992777;28;20058;-42
2021/05/28 00:44:47;;;;;;;5.00;3.53;;;;;;;;;;4997904;28;20050;-44
2021/05/28 00:47:14;;;;;;;3.75;3.00;;;;;;;;;;4991930;28;20054;-45
2021/05/28 00:49:40;;;;;;;3.97;2.75;;;;;;;;;;4992804;28;20074;-49
2021/05/28 00:52:07;;;;;;;4.40;3.10;;;;;;;;;;4992759;28;20046;-44
2021/05/28 00:54:34;;;;;;;6.10;3.30;;;;;;;;;;4992180;28;20184;-44
2021/05/28 00:57:01;;;;;;;4.75;3.35;;;;;;;;;;4992334;28;20054;-42
2021/05/28 00:59:28;;;;;;;5.22;3.17;;;;;;;;;;5003483;28;20047;-43
2021/05/28 01:01:55;;;;;;;3.95;2.80;;;;;;;;;;4973735;28;20051;-49
2021/05/28 01:04:22;;;;;;;5.25;3.25;;;;;;;;;;4972912;28;20070;-42
2021/05/28 01:06:50;;;;;;;4.38;2.90;;;;;;;;;;4995856;28;20051;-42
2021/05/28 01:09:17;;;;;;;4.03;3.05;;;;;;;;;;4992568;28;20057;-45
2021/05/28 01:11:44;;;;;;;4.35;3.00;;;;;;;;;;4992716;28;20081;-43
2021/05/28 01:14:11;;;;;;;6.72;3.15;;;;;;;;;;4992418;28;20500;-46
2021/05/28 01:16:38;;;;;;;4.10;3.10;;;;;;;;;;4991364;28;20050;-43
2021/05/28 01:19:04;;;;;;;4.22;3.17;;;;;;;;;;4992188;28;20054;-43
2021/05/28 01:21:31;;;;;;;5.00;2.95;;;;;;;;;;4992656;28;20112;-43
2021/05/28 01:23:58;;;;;;;4.72;3.45;;;;;;;;;;4986548;28;20420;-45
2021/05/28 01:26:25;;;;;;;4.22;3.00;;;;;;;;;;4990297;28;20053;-49
2021/05/28 01:28:52;;;;;;;3.50;3.00;;;;;;;;;;4984496;28;20077;-43
2021/05/28 01:31:19;;;;;;;4.30;3.05;;;;;;;;;;4973061;28;20093;-43
2021/05/28 01:33:46;;;;;;;3.70;3.03;;;;;;;;;;4973030;28;20050;-47
2021/05/28 01:36:13;;;;;;;4.72;2.90;;;;;;;;;;4972882;28;20401;-46
2021/05/28 01:38:40;;;;;;;4.65;3.00;;;;;;;;;;4991305;28;20046;-42
2021/05/28 01:41:07;;;;;;;5.65;2.90;;;;;;;;;;5007245;28;20077;-47
2021/05/28 01:43:34;;;;;;;5.03;3.08;;;;;;;;;;4991024;28;20129;-43
2021/05/28 01:46:01;;;;;;;4.72;3.00;;;;;;;;;;4990777;28;20050;-47
2021/05/28 01:48:27;;;;;;;7.47;2.95;;;;;;;;;;4991031;28;20050;-43
2021/05/28 01:50:54;;;;;;;3.65;2.60;;;;;;;;;;4992054;28;20068;-42
2021/05/28 01:53:23;;;;;;;4.15;2.88;;;;;;;;;;4990190;28;20078;-44
2021/05/28 01:55:51;;;;;;;4.95;2.90;;;;;;;;;;4991207;28;20066;-51
2021/05/28 01:58:22;;;;;;;3.92;2.85;;;;;;;;;;4990678;28;20046;-50
2021/05/28 02:00:51;;;;;;;3.17;2.60;;;;;;;;;;4990842;28;20065;-50
2021/05/28 02:03:18;;;;;;;3.50;2.80;;;;;;;;;;4990357;28;20448;-48
2021/05/28 02:05:46;;;;;;;4.93;2.92;;;;;;;;;;4990872;28;20050;-46
2021/05/28 02:08:13;;;;;;;3.85;2.72;;;;;;;;;;4991429;28;20044;-51
2021/05/28 02:10:40;;;;;;;4.00;3.03;;;;;;;;;;4991271;28;20456;-51
2021/05/28 02:13:07;;;;;;;4.50;3.22;;;;;;;;;;4991345;28;20129;-50
2021/05/28 02:15:34;;;;;;;4.55;2.92;;;;;;;;;;4990237;28;20059;-52
2021/05/28 02:18:01;;;;;;;3.80;2.90;;;;;;;;;;4990245;28;20051;-48
2021/05/28 02:20:28;;;;;;;4.28;3.20;;;;;;;;;;4991257;28;20062;-51
2021/05/28 02:22:55;;;;;;;4.82;3.53;;;;;;;;;;4989829;28;20047;-48
2021/05/28 02:25:22;;;;;;;4.97;3.13;;;;;;;;;;4990543;28;20450;-48
2021/05/28 02:27:49;;;;;;;4.20;3.15;;;;;;;;;;4990739;28;20096;-48
2021/05/28 02:30:15;;;;;;;3.85;3.00;;;;;;;;;;4972583;28;20059;-48
2021/05/28 02:32:42;;;;;;;4.25;3.40;;;;;;;;;;4984444;28;20120;-51
2021/05/28 02:35:10;;;;;;;3.88;3.10;;;;;;;;;;4990936;28;20116;-49
2021/05/28 02:37:37;;;;;;;5.85;3.42;;;;;;;;;;4997938;28;20046;-43
2021/05/28 02:40:05;;;;;;;4.05;2.90;;;;;;;;;;4991488;28;20157;-43
2021/05/28 02:42:32;;;;;;;4.43;3.20;;;;;;;;;;4991155;28;20416;-43
2021/05/28 02:44:59;;;;;;;4.20;2.90;;;;;;;;;;5034645;22;20410;-48
2021/05/28 02:47:26;;;;;;;3.60;2.80;;;;;;;;;;5024901;28;20489;-48
2021/05/28 02:49:54;;;;;;;6.05;3.90;;;;;;;;;;5031589;28;20057;-46
2021/05/28 02:52:20;;;;;;;4.30;3.13;;;;;;;;;;5033198;28;20042;-45
2021/05/28 02:54:47;;;;;;;4.82;3.30;;;;;;;;;;5020278;28;20049;-47
2021/05/28 02:57:14;;;;;;;4.53;3.10;;;;;;;;;;5030038;28;20530;-47
2021/05/28 02:59:41;;;;;;;4.47;3.10;;;;;;;;;;5026737;28;20058;-48
2021/05/28 03:02:08;;;;;;;4.90;3.45;;;;;;;;;;5031693;28;20491;-48
2021/05/28 03:04:35;;;;;;;4.68;3.30;;;;;;;;;;5031900;28;20084;-47
2021/05/28 03:07:02;;;;;;;5.18;3.30;;;;;;;;;;5025981;28;20386;-50
2021/05/28 03:09:29;;;;;;;6.05;3.35;;;;;;;;;;5029780;28;20700;-50
2021/05/28 03:11:56;;;;;;;4.82;3.22;;;;;;;;;;5031919;28;20046;-49
2021/05/28 03:14:23;;;;;;;5.90;3.70;;;;;;;;;;5032142;28;20045;-47
2021/05/28 03:16:50;;;;;;;4.30;3.20;;;;;;;;;;5026762;28;20499;-46
2021/05/28 03:19:23;;;;;;;4.88;3.38;;;;;;;;;;5032140;28;20049;-47
2021/05/28 03:24:35;;;;;;;6.60;3.40;;;;;;;;;;5022785;28;20108;-50
2021/05/28 03:27:02;;;;;;;4.53;3.47;;;;;;;;;;5031063;28;20041;-49
2021/05/28 03:29:28;;;;;;;5.80;4.28;;;;;;;;;;5024002;28;20069;-49
2021/05/28 03:31:55;;;;;;;5.55;4.47;;;;;;;;;;5031355;28;20104;-46
2021/05/28 03:34:22;;;;;;;5.85;4.30;;;;;;;;;;5028143;28;20046;-48
2021/05/28 03:36:50;;;;;;;5.15;3.78;;;;;;;;;;5025179;28;20046;-50
2021/05/28 03:39:17;;;;;;;6.55;4.20;;;;;;;;;;5012826;28;20124;-45
2021/05/28 03:41:43;;;;;;;4.82;3.67;;;;;;;;;;5020773;28;20072;-47
2021/05/28 03:44:10;;;;;;;5.75;3.33;;;;;;;;;;5031706;28;20060;-47
2021/05/28 03:46:37;;;;;;;5.35;3.70;;;;;;;;;;5017097;28;20133;-48
2021/05/28 03:49:04;;;;;;;5.65;3.70;;;;;;;;;;5024756;28;20141;-48
2021/05/28 03:51:31;;;;;;;4.30;3.20;;;;;;;;;;5030972;28;20049;-46
2021/05/28 03:53:58;;;;;;;4.13;3.22;;;;;;;;;;5029319;28;20053;-46
2021/05/28 03:56:25;;;;;;;5.20;3.90;;;;;;;;;;5031493;28;20456;-48
2021/05/28 03:58:51;;;;;;;5.63;3.50;;;;;;;;;;5021119;28;20129;-46
2021/05/28 04:01:18;;;;;;;6.53;4.38;;;;;;;;;;5019154;28;20524;-48
2021/05/28 04:03:45;;;;;;;6.30;4.60;;;;;;;;;;5030667;28;20107;-45
2021/05/28 04:06:12;;;;;;;7.03;4.45;;;;;;;;;;5028186;28;20199;-49
2021/05/28 04:08:39;;;;;;;4.95;3.97;;;;;;;;;;5017709;28;20054;-47
2021/05/28 04:11:05;;;;;;;8.95;4.03;;;;;;;;;;5028875;28;20051;-47
2021/05/28 04:13:32;;;;;;;6.53;4.00;;;;;;;;;;5030470;28;20073;-49
2021/05/28 04:16:00;;;;;;;4.80;3.92;;;;;;;;;;5020070;28;20046;-47
2021/05/28 04:18:27;;;;;;;6.35;4.05;;;;;;;;;;5013330;28;20049;-48
2021/05/28 04:20:53;;;;;;;8.63;4.88;;;;;;;;;;5010207;28;20119;-50
2021/05/28 04:23:21;;;;;;;4.70;3.78;;;;;;;;;;5028132;28;20054;-46
2021/05/28 04:25:48;;;;;;;5.65;4.03;;;;;;;;;;5018348;28;20121;-45
2021/05/28 04:28:15;;;;;;;4.85;3.90;;;;;;;;;;4997828;28;20117;-49
2021/05/28 04:30:42;;;;;;;5.35;3.65;;;;;;;;;;5022611;28;20384;-48
2021/05/28 04:33:09;;;;;;;6.18;3.65;;;;;;;;;;5027611;28;20049;-44
2021/05/28 04:35:36;;;;;;;5.55;3.65;;;;;;;;;;5012839;28;20054;-48
2021/05/28 04:38:02;;;;;;;5.47;3.97;;;;;;;;;;5027061;28;20053;-47
2021/05/28 04:40:30;;;;;;;6.78;3.78;;;;;;;;;;5028272;28;20601;-46
2021/05/28 04:42:58;;;;;;;4.55;3.50;;;;;;;;;;5023044;28;20621;-46
2021/05/28 04:45:26;;;;;;;5.90;3.67;;;;;;;;;;5024341;28;20569;-46
2021/05/28 04:47:53;;;;;;;6.57;3.78;;;;;;;;;;5028905;28;20073;-46
2021/05/28 04:50:21;;;;;;;6.20;3.75;;;;;;;;;;5017785;28;20042;-47
2021/05/28 04:52:48;;;;;;;5.20;3.90;;;;;;;;;;5022715;28;20483;-49
2021/05/28 04:55:15;;;;;;;6.10;3.95;;;;;;;;;;5029318;28;20049;-44
2021/05/28 04:57:41;;;;;;;7.22;3.60;;;;;;;;;;5006891;28;20480;-49
2021/05/28 05:00:09;;;;;;;4.70;3.22;;;;;;;;;;5027579;28;20037;-48
2021/05/28 05:02:36;;;;;;;4.10;3.50;;;;;;;;;;5027548;28;20061;-45
2021/05/28 05:05:03;;;;;;;3.90;3.15;;;;;;;;;;5007107;28;20152;-45
2021/05/28 05:07:30;;;;;;;6.70;3.10;;;;;;;;;;5027135;28;20114;-46
2021/05/28 05:09:57;;;;;;;4.53;2.80;;;;;;;;;;5016268;28;20056;-46
2021/05/28 05:12:24;;;;;;;4.00;3.00;;;;;;;;;;5030113;28;20053;-49
2021/05/28 05:14:50;;;;;;;5.38;3.47;;;;;;;;;;5011857;28;20108;-54
2021/05/28 05:17:17;;;;;;;5.70;3.38;;;;;;;;;;5018774;28;20103;-46
2021/05/28 05:19:44;;;;;;;4.82;2.95;;;;;;;;;;5028268;28;20128;-47
2021/05/28 05:22:11;;;;;;;4.15;2.85;;;;;;;;;;5030016;28;20508;-51
2021/05/28 05:24:38;;;;;;;5.47;3.22;;;;;;;;;;5019289;28;20074;-47
2021/05/28 05:27:05;;;;;;;3.88;2.97;;;;;;;;;;5027016;28;20037;-53
2021/05/28 05:29:32;;;;;;;5.82;3.00;;;;;;;;;;5021828;28;20132;-52
2021/05/28 05:31:58;;;;;;;5.90;3.60;;;;;;;;;;5028723;28;20382;-52
2021/05/28 05:34:25;;;;;;;5.90;3.30;;;;;;;;;;5010518;28;20042;-54
2021/05/28 05:36:53;;;;;;;5.18;3.22;;;;;;;;;;5013414;28;20050;-53
2021/05/28 05:39:22;;;;;;;5.25;3.60;;;;;;;;;;5030489;28;20172;-50
2021/05/28 05:41:49;;;;;;;4.18;3.25;;;;;;;;;;5026207;28;20069;-53
2021/05/28 05:44:16;;;;;;;7.13;3.70;;;;;;;;;;5021684;28;20045;-49
2021/05/28 05:46:43;;;;;;;5.18;3.30;;;;;;;;;;5020829;28;20115;-54
2021/05/28 05:49:10;;;;;;;4.68;3.00;;;;;;;;;;5010662;28;20041;-48
2021/05/28 05:51:38;;;;;;;4.75;2.85;;;;;;;;;;5023883;28;20038;-54
2021/05/28 05:54:05;;;;;;;5.28;2.80;;;;;;;;;;5018108;28;20041;-51
2021/05/28 05:56:32;;;;;;;5.70;2.92;;;;;;;;;;5029175;28;20053;-53
2021/05/28 05:58:59;;;;;;;5.97;3.35;;;;;;;;;;5021106;28;20076;-51
2021/05/28 06:01:26;;;;;;;3.97;3.10;;;;;;;;;;5029399;28;20462;-49
2021/05/28 06:03:53;;;;;;;4.30;3.08;;;;;;;;;;5026928;28;20049;-49
2021/05/28 06:06:20;;;;;;;5.95;3.10;;;;;;;;;;5028664;28;20526;-49
2021/05/28 06:08:47;;;;;;;3.58;2.45;;;;;;;;;;5028797;28;20498;-50
2021/05/28 06:11:14;;;;;;;4.43;3.00;;;;;;;;;;5029363;28;20163;-49
2021/05/28 06:13:41;;;;;;;4.53;3.08;;;;;;;;;;5027828;28;20115;-50
2021/05/28 06:16:08;;;;;;;3.80;2.70;;;;;;;;;;5028117;28;20061;-49
2021/05/28 06:18:35;;;;;;;3.60;2.63;;;;;;;;;;5011593;28;20100;-51
2021/05/28 06:21:02;;;;;;;3.90;3.15;;;;;;;;;;5026315;28;20415;-50
2021/05/28 06:23:29;;;;;;;4.15;3.00;;;;;;;;;;5027294;28;20049;-53
2021/05/28 06:25:57;;;;;;;4.25;3.25;;;;;;;;;;5029222;28;20068;-55
2021/05/28 06:28:24;;;;;;;6.50;3.20;;;;;;;;;;5025433;28;20041;-52
2021/05/28 06:30:50;;;;;;;5.47;2.90;;;;;;;;;;5014339;28;20050;-55
2021/05/28 06:33:17;;;;;;;7.53;5.45;;;;;;;;;;5028629;28;20041;-54
2021/05/28 06:35:44;;;;;;;6.05;4.13;;;;;;;;;;5032611;28;20375;-55
2021/05/28 06:38:11;;;;;;;6.38;3.40;;;;;;;;;;5028962;28;20081;-55
2021/05/28 06:40:38;;;;;;;5.60;3.40;;;;;;;;;;5032439;28;20045;-54
2021/05/28 06:43:07;;;;;;;4.55;3.20;;;;;;;;;;5027805;28;20052;-52
2021/05/28 06:45:37;;;;;;;4.35;2.78;;;;;;;;;;5013150;28;20096;-54
2021/05/28 06:48:04;;;;;;;5.88;3.30;;;;;;;;;;5013132;28;20046;-53
2021/05/28 06:50:31;;;;;;;5.07;3.35;;;;;;;;;;5014163;28;20149;-52
2021/05/28 06:52:59;;;;;;;7.28;3.58;;;;;;;;;;5013773;28;20403;-54
2021/05/28 06:55:26;;;;;;;6.10;3.70;;;;;;;;;;5013994;28;20049;-54
2021/05/28 06:57:53;;;;;;;6.90;3.55;;;;;;;;;;5014663;28;20199;-55
2021/05/28 07:00:20;;;;;;;4.70;3.50;;;;;;;;;;5013786;28;20593;-56
2021/05/28 07:02:47;;;;;;;6.90;4.00;;;;;;;;;;5013805;28;20153;-50
2021/05/28 07:05:15;;;;;;;7.32;4.03;;;;;;;;;;5013618;28;20085;-54
2021/05/28 07:07:42;;;;;;;6.60;4.03;;;;;;;;;;5013400;28;20408;-54
2021/05/28 07:10:09;;;;;;;10.93;4.25;;;;;;;;;;5013760;28;20507;-52
2021/05/28 07:12:36;;;;;;;6.75;3.60;;;;;;;;;;5013634;28;20519;-53
2021/05/28 07:15:04;;;;;;;4.55;3.28;;;;;;;;;;5013464;28;20545;-53
2021/05/28 07:17:31;;;;;;;6.95;4.30;;;;;;;;;;4999622;28;20061;-52
2021/05/28 07:19:58;;;;;;;5.18;3.88;;;;;;;;;;5014742;28;20049;-52
2021/05/28 07:22:25;;;;;;;5.85;4.25;;;;;;;;;;5027027;28;20049;-50
2021/05/28 07:24:51;;;;;;;5.22;3.90;;;;;;;;;;5021994;28;20108;-53
2021/05/28 07:27:18;;;;;;;7.13;3.75;;;;;;;;;;5031594;28;20134;-51
2021/05/28 07:29:45;;;;;;;5.07;4.22;;;;;;;;;;5020094;28;20037;-50
2021/05/28 07:32:12;;;;;;;5.90;4.07;;;;;;;;;;5028695;28;20065;-52
2021/05/28 07:34:39;;;;;;;5.45;3.90;;;;;;;;;;5009590;28;20164;-51
2021/05/28 07:37:07;;;;;;;6.65;4.28;;;;;;;;;;5018321;28;20053;-52
2021/05/28 07:39:35;;;;;;;6.45;4.28;;;;;;;;;;5013053;28;20140;-54
2021/05/28 07:42:03;;;;;;;6.22;4.05;;;;;;;;;;5030717;28;20113;-49
2021/05/28 07:44:29;;;;;;;6.93;4.00;;;;;;;;;;5032937;28;20112;-49
2021/05/28 07:46:56;;;;;;;7.60;3.80;;;;;;;;;;5033030;28;20096;-50
2021/05/28 07:49:23;;;;;;;6.28;4.45;;;;;;;;;;5013784;28;20048;-49
2021/05/28 07:51:50;;;;;;;5.43;4.28;;;;;;;;;;5020546;28;20042;-54
2021/05/28 07:54:17;;;;;;;8.02;4.07;;;;;;;;;;5030004;28;20530;-52
2021/05/28 07:56:44;;;;;;;6.88;4.10;;;;;;;;;;5014877;28;20061;-53
2021/05/28 07:59:11;;;;;;;7.10;3.85;;;;;;;;;;5016837;28;20465;-54
2021/05/28 08:01:38;;;;;;;5.53;3.90;;;;;;;;;;5031380;28;20046;-55
2021/05/28 08:04:05;;;;;;;5.75;4.30;;;;;;;;;;5031517;28;20053;-54
2021/05/28 08:06:32;;;;;;;6.93;4.28;;;;;;;;;;5030248;28;20172;-56
2021/05/28 08:08:58;;;;;;;6.32;3.92;;;;;;;;;;5025882;28;20053;-54
2021/05/28 08:11:25;;;;;;;5.85;4.03;;;;;;;;;;5018682;28;20050;-55
2021/05/28 08:13:52;;;;;;;5.15;3.78;;;;;;;;;;5031109;28;20049;-57
2021/05/28 08:16:19;;;;;;;6.25;4.55;;;;;;;;;;5030458;28;20059;-58
2021/05/28 08:18:46;;;;;;;11.75;4.60;;;;;;;;;;5032254;28;20446;-58
2021/05/28 08:21:13;;;;;;;6.20;3.97;;;;;;;;;;5013158;28;20191;-62
2021/05/28 08:23:40;;;;;;;5.50;4.45;;;;;;;;;;5026133;28;20054;-55
2021/05/28 08:26:07;;;;;;;5.07;3.55;;;;;;;;;;5030148;28;20084;-58
2021/05/28 08:28:35;;;;;;;5.70;4.45;;;;;;;;;;5025731;28;20112;-58
2021/05/28 08:31:03;;;;;;;6.28;4.70;;;;;;;;;;5028484;28;20037;-56
2021/05/28 08:33:30;;;;;;;9.10;5.40;;;;;;;;;;5026476;28;20053;-54
2021/05/28 08:35:57;;;;;;;6.93;4.85;;;;;;;;;;5027633;28;20080;-56
2021/05/28 08:38:24;;;;;;;5.55;4.60;;;;;;;;;;5020004;28;20057;-55
2021/05/28 08:40:51;;;;;;;6.13;4.28;;;;;;;;;;5030546;28;20050;-57
2021/05/28 08:43:18;;;;;;;4.90;4.28;;;;;;;;;;5029805;28;20110;-57
2021/05/28 08:45:46;;;;;;;7.35;5.30;;;;;;;;;;5022370;28;20061;-52
2021/05/28 08:48:17;;;;;;;8.55;4.50;;;;;;;;;;5027038;28;20076;-55
2021/05/28 08:50:45;;;;;;;7.57;4.60;;;;;;;;;;5025954;28;20136;-51
2021/05/28 08:53:13;;;;;;;5.38;4.68;;;;;;;;;;5025189;28;20116;-51
2021/05/28 08:55:40;;;;;;;5.28;4.40;;;;;;;;;;5011332;28;20073;-51
2021/05/28 08:58:09;;;;;;;5.55;4.13;;;;;;;;;;5028054;28;20099;-47
2021/05/28 09:00:36;;;;;;;7.55;4.00;;;;;;;;;;5029671;28;20142;-49
2021/05/28 09:03:21;;;;;;;5.57;4.22;;;;;;;;;;5030404;28;20108;-52
2021/05/28 09:05:56;;;;;;;4.63;3.50;;;;;;;;;;5019672;28;20128;-50
2021/05/28 09:08:24;;;;;;;4.68;3.58;;;;;;;;;;5016750;28;20070;-49
2021/05/28 09:10:53;;;;;;;5.22;3.50;;;;;;;;;;5020480;28;20045;-51
2021/05/28 09:13:24;;;;;;;6.15;4.10;;;;;;;;;;5020554;28;20133;-52
2021/05/28 09:16:04;;;;;;;4.05;3.30;;;;;;;;;;5019950;28;20042;-49
2021/05/28 09:18:42;;;;;;;5.72;3.92;;;;;;;;;;5067074;28;20865;-47
2021/05/28 09:21:09;;;;;;;9.30;5.35;;;;;;;;;;5058097;28;20045;-49
2021/05/28 09:23:36;;;;;;;5.15;4.25;;;;;;;;;;5070233;28;20480;-45
2021/05/28 09:26:05;;;;;;;8.55;4.50;;;;;;;;;;5065797;28;20123;-45
2021/05/28 09:28:37;;;;;;;7.35;4.47;;;;;;;;;;5067041;28;20122;-47
2021/05/28 09:31:10;;;;;;;7.22;4.78;;;;;;;;;;5060854;28;20045;-45
2021/05/28 09:33:38;;;;;;;6.97;4.78;;;;;;;;;;5052570;28;20077;-46
2021/05/28 09:36:06;;;;;;;6.82;4.95;;;;;;;;;;5060492;28;20049;-47
2021/05/28 09:38:33;;;;;;;5.90;4.88;;;;;;;;;;5055020;28;20501;-45
2021/05/28 09:41:01;;;;;;;6.43;4.57;;;;;;;;;;5048608;28;20107;-45
2021/05/28 09:43:28;;;;;;;5.72;4.25;;;;;;;;;;5052895;28;20128;-50
2021/05/28 09:45:55;;;;;;;7.60;4.80;;;;;;;;;;5070027;28;20183;-47
2021/05/28 09:48:29;;;;;;;8.68;5.15;;;;;;;;;;5056678;28;20071;-47
2021/05/28 09:50:59;;;;;;;5.68;4.63;;;;;;;;;;5058018;28;20053;-49
2021/05/28 09:53:25;;;;;;;7.90;4.20;;;;;;;;;;5053119;28;20138;-46
2021/05/28 09:55:52;;;;;;;8.88;4.45;;;;;;;;;;5080630;28;20052;-46
2021/05/28 09:58:19;;;;;;;6.82;4.60;;;;;;;;;;5047206;28;20127;-47
2021/05/28 10:00:46;;;;;;;6.68;4.35;;;;;;;;;;5055548;28;20049;-48
2021/05/28 10:03:23;;;;;;;6.63;4.55;;;;;;;;;;5054262;28;20050;-45
2021/05/28 10:05:58;;;;;;;8.68;4.68;;;;;;;;;;5055360;28;20045;-49
2021/05/28 10:08:26;;;;;;;6.07;4.57;;;;;;;;;;5077751;28;20138;-48
2021/05/28 10:10:53;;;;;;;9.15;4.85;;;;;;;;;;5057441;28;20431;-47
2021/05/28 10:13:21;;;;;;;6.43;4.63;;;;;;;;;;5063582;28;20091;-48
2021/05/28 10:15:58;;;;;;;9.20;5.32;;;;;;;;;;5058008;28;20489;-48
2021/05/28 10:18:25;;;;;;;5.70;4.38;;;;;;;;;;5057043;28;20059;-47
2021/05/28 10:20:53;;;;;;;5.85;4.25;;;;;;;;;;5065446;28;20174;-47
2021/05/28 10:23:20;;;;;;;5.93;3.70;;;;;;;;;;5048593;28;20183;-46
2021/05/28 10:25:47;;;;;;;12.07;5.07;;;;;;;;;;5081185;28;20048;-44
2021/05/28 10:28:19;;;;;;;5.97;4.90;;;;;;;;;;5048459;28;20068;-46
2021/05/28 10:30:47;;;;;;;5.90;4.63;;;;;;;;;;5052752;28;20057;-49
2021/05/28 10:33:16;;;;;;;6.65;5.78;;;;;;;;;;5049448;28;20056;-47
2021/05/28 10:35:47;;;;;;;5.78;4.35;;;;;;;;;;5039515;28;20451;-45
2021/05/28 10:38:29;;;;;;;9.40;5.28;;;;;;;;;;5043242;28;20072;-45
2021/05/28 10:41:05;;;;;;;8.27;5.65;;;;;;;;;;5041809;28;20076;-48
2021/05/28 10:43:33;;;;;;;6.40;5.30;;;;;;;;;;5057978;28;20080;-49
2021/05/28 10:46:04;;;;;;;6.50;4.95;;;;;;;;;;5040354;28;20047;-49
2021/05/28 10:48:36;;;;;;;7.45;5.28;;;;;;;;;;5036661;28;20510;-50
2021/05/28 10:51:04;;;;;;;9.63;5.90;;;;;;;;;;5040247;28;20578;-47
2021/05/28 10:53:31;;;;;;;6.07;5.20;;;;;;;;;;5046922;22;20046;-48
2021/05/28 10:55:59;;;;;;;5.50;4.97;;;;;;;;;;5029218;28;20442;-47
2021/05/28 10:58:45;;;;;;;9.48;5.20;;;;;;;;;;5018890;28;20039;-47
2021/05/28 11:01:30;;;;;;;7.70;5.15;;;;;;;;;;5005125;28;20046;-50
2021/05/28 11:04:05;;;;;;;8.80;5.10;;;;;;;;;;5013484;28;20085;-49
2021/05/28 11:06:32;;;;;;;6.65;4.80;;;;;;;;;;5006549;28;20478;-48
2021/05/28 11:09:05;;;;;;;8.88;5.32;;;;;;;;;;4992944;28;20057;-48
2021/05/28 11:11:35;;;;;;;6.95;5.63;;;;;;;;;;5011020;28;20049;-49
2021/05/28 11:14:20;;;;;;;6.82;5.57;;;;;;;;;;5009670;28;20062;-46
2021/05/28 11:16:53;;;;;;;7.70;4.95;;;;;;;;;;5013355;28;20050;-47
2021/05/28 11:19:40;;;;;;;6.10;5.20;;;;;;;;;;5012616;28;20049;-48
2021/05/28 11:22:11;;;;;;;4.75;4.20;;;;;;;;;;5012272;28;20426;-50
2021/05/28 11:24:44;;;;;;;5.38;4.40;;;;;;;;;;5010565;28;20193;-46
2021/05/28 11:27:14;;;;;;;7.05;4.95;;;;;;;;;;5013180;28;20058;-50
2021/05/28 11:29:41;;;;;;;5.25;4.38;;;;;;;;;;5008747;28;20396;-47
2021/05/28 11:32:27;;;;;;;7.15;4.65;;;;;;;;;;5013408;28;20085;-47
2021/05/28 11:35:12;;;;;;;6.13;4.10;;;;;;;;;;5012259;28;20049;-47
2021/05/28 11:37:40;;;;;;;8.18;4.82;;;;;;;;;;5009161;28;20047;-44
2021/05/28 11:40:15;;;;;;;6.20;5.05;;;;;;;;;;5006554;28;20068;-42
2021/05/28 11:42:42;;;;;;;4.88;4.35;;;;;;;;;;5007638;28;20050;-44
2021/05/28 11:45:11;;;;;;;6.00;4.50;;;;;;;;;;5009646;28;21669;-42
2021/05/28 11:47:38;;;;;;;5.93;4.30;;;;;;;;;;5007694;28;20466;-42
2021/05/28 11:50:26;;;;;;;5.57;4.10;;;;;;;;;;5010218;28;20156;-44
2021/05/28 11:53:00;;;;;;;5.32;4.25;;;;;;;;;;5006522;28;20045;-45
2021/05/28 11:55:27;;;;;;;6.95;5.13;;;;;;;;;;5001969;28;20076;-42
2021/05/28 11:57:57;;;;;;;5.35;4.30;;;;;;;;;;5005363;28;20066;-45
2021/05/28 12:00:24;;;;;;;4.80;4.07;;;;;;;;;;5006208;28;20050;-41
2021/05/28 12:02:55;;;;;;;10.35;5.35;;;;;;;;;;5010286;28;20100;-44
2021/05/28 12:05:22;;;;;;;5.30;4.50;;;;;;;;;;5006039;28;20125;-44
2021/05/28 12:07:51;;;;;;;6.22;5.30;;;;;;;;;;5006152;28;20049;-44
2021/05/28 12:10:19;;;;;;;7.43;5.30;;;;;;;;;;5010235;28;20049;-44
2021/05/28 12:12:49;;;;;;;7.30;4.82;;;;;;;;;;5013231;28;20084;-51
2021/05/28 12:15:16;;;;;;;6.70;5.28;;;;;;;;;;5013075;28;20700;-45
2021/05/28 12:17:46;;;;;;;7.03;4.82;;;;;;;;;;5003021;28;20057;-46
2021/05/28 12:20:15;;;;;;;5.82;4.82;;;;;;;;;;5006517;28;20471;-44
2021/05/28 12:22:58;;;;;;;5.30;4.50;;;;;;;;;;5010379;28;20100;-45
2021/05/28 12:25:24;;;;;;;;;;;;;;;;;;5008635;28;20411;-43
2021/05/28 12:27:54;;;;;;;4.88;3.97;;;;;;;;;;5004885;28;19922;-45
2021/05/28 12:30:24;;;;;;;5.05;4.03;;;;;;;;;;5012996;28;20082;-46
2021/05/28 12:32:52;;;;;;;5.10;3.72;;;;;;;;;;5011326;28;20053;-45
2021/05/28 12:35:20;;;;;;;6.07;3.80;;;;;;;;;;5004728;28;20129;-45
2021/05/28 12:38:07;;;;;;;5.10;4.30;;;;;;;;;;5004969;28;20080;-44
2021/05/28 12:40:34;;;;;;;5.32;4.60;;;;;;;;;;5005412;28;20116;-43
2021/05/28 12:43:01;;;;;;;5.07;4.15;;;;;;;;;;5004767;28;20057;-45
2021/05/28 12:45:35;;;;;;;6.20;3.65;;;;;;;;;;5005831;28;20581;-42
2021/05/28 12:48:02;;;;;;;5.97;4.32;;;;;;;;;;5006507;28;20173;-41
2021/05/28 12:50:33;;;;;;;5.20;3.60;;;;;;;;;;5009125;28;20535;-45
2021/05/28 12:53:08;;;;;;;5.43;3.10;;;;;;;;;;5001606;28;20046;-48
2021/05/28 12:55:37;;;;;;;7.82;3.90;;;;;;;;;;5003469;28;20050;-45
2021/05/28 12:58:04;;;;;;;4.10;3.40;;;;;;;;;;5008085;28;20050;-46
2021/05/28 13:00:35;;;;;;;4.70;3.40;;;;;;;;;;5011092;28;20080;-44
2021/05/28 13:03:02;;;;;;;5.38;3.80;;;;;;;;;;5010022;28;20052;-50
2021/05/28 13:05:31;;;;;;;4.45;3.65;;;;;;;;;;5004710;28;20065;-48
2021/05/28 13:07:58;;;;;;;5.85;4.13;;;;;;;;;;5006683;28;20050;-50
2021/05/28 13:10:25;;;;;;;6.25;3.83;;;;;;;;;;5008255;28;20081;-50
2021/05/28 13:12:53;;;;;;;6.20;3.50;;;;;;;;;;5009776;28;20100;-44
2021/05/28 13:15:25;;;;;;;5.63;3.50;;;;;;;;;;5007920;28;20061;-46
2021/05/28 13:17:53;;;;;;;4.73;3.50;;;;;;;;;;5007030;28;20042;-47
2021/05/28 13:20:20;;;;;;;6.93;3.92;;;;;;;;;;5005256;28;20085;-47
2021/05/28 13:22:52;;;;;;;12.18;3.95;;;;;;;;;;4991016;28;20062;-46
2021/05/28 13:25:31;;;;;;;4.53;3.47;;;;;;;;;;5004731;28;20092;-44
2021/05/28 13:28:05;;;;;;;4.40;3.47;;;;;;;;;;5005446;28;20057;-43
2021/05/28 13:30:37;;;;;;;4.90;3.60;;;;;;;;;;5012823;28;20042;-46
2021/05/28 13:33:30;;;;;;;5.13;3.42;;;;;;;;;;5009100;28;20189;-44
2021/05/28 13:35:57;;;;;;;;;;;;;;;;;;5005269;28;20054;-46
2021/05/28 13:38:45;;;;;;;7.80;3.40;;;;;;;;;;5010100;28;19925;-47
2021/05/28 13:41:17;;;;;;;5.53;3.70;;;;;;;;;;5009812;28;20121;-48
2021/05/28 13:43:54;;;;;;;7.07;3.40;;;;;;;;;;5012439;28;20108;-47
2021/05/28 13:46:20;;;;;;;5.72;3.47;;;;;;;;;;5011323;28;20042;-44
2021/05/28 13:48:47;;;;;;;6.32;3.50;;;;;;;;;;5011643;28;20107;-45
2021/05/28 13:51:14;;;;;;;6.75;3.60;;;;;;;;;;5006575;28;20529;-45
2021/05/28 13:53:41;;;;;;;4.22;3.13;;;;;;;;;;5011751;28;20057;-45
2021/05/28 13:56:09;;;;;;;4.93;3.53;;;;;;;;;;5010495;28;20053;-47
2021/05/28 13:58:36;;;;;;;5.32;3.15;;;;;;;;;;5017891;28;20046;-47
2021/05/28 14:01:03;;;;;;;6.10;3.42;;;;;;;;;;5021794;28;20073;-47
2021/05/28 14:03:30;;;;;;;5.05;3.50;;;;;;;;;;5023818;28;20586;-49
2021/05/28 14:05:57;;;;;;;5.35;3.65;;;;;;;;;;5020414;28;20046;-45
2021/05/28 14:08:24;;;;;;;5.22;3.30;;;;;;;;;;5011729;28;20062;-45
2021/05/28 14:10:51;;;;;;;5.10;3.33;;;;;;;;;;5015053;28;20049;-47
2021/05/28 14:13:19;;;;;;;5.68;3.55;;;;;;;;;;5016594;28;20045;-46
2021/05/28 14:15:46;;;;;;;5.25;3.38;;;;;;;;;;5015142;28;20050;-45
2021/05/28 14:18:13;;;;;;;4.85;3.47;;;;;;;;;;5010591;28;20054;-47
2021/05/28 14:20:41;;;;;;;4.88;3.30;;;;;;;;;;5014109;28;20104;-47
2021/05/28 14:23:09;;;;;;;5.80;3.50;;;;;;;;;;5021245;28;20475;-46
2021/05/28 14:25:37;;;;;;;5.78;3.38;;;;;;;;;;5005030;28;20053;-45
2021/05/28 14:28:09;;;;;;;4.90;3.70;;;;;;;;;;5008541;28;20137;-45
2021/05/28 14:30:36;;;;;;;6.15;3.30;;;;;;;;;;5014105;28;20081;-46
2021/05/28 14:33:03;;;;;;;4.75;3.60;;;;;;;;;;5019025;28;20066;-47
2021/05/28 14:35:30;;;;;;;4.50;3.78;;;;;;;;;;5011778;28;20042;-47
2021/05/28 14:37:57;;;;;;;7.43;3.47;;;;;;;;;;5012817;28;20053;-48
2021/05/28 14:40:25;;;;;;;6.43;3.85;;;;;;;;;;5014249;28;20045;-48
2021/05/28 14:42:52;;;;;;;5.20;3.33;;;;;;;;;;5010677;28;20045;-48
2021/05/28 14:45:20;;;;;;;5.40;3.38;;;;;;;;;;5012216;28;20083;-47
2021/05/28 14:47:49;;;;;;;6.13;3.55;;;;;;;;;;5013390;28;20052;-44
2021/05/28 14:50:25;;;;;;;5.50;3.50;;;;;;;;;;5003423;28;20050;-48
2021/05/28 14:52:54;;;;;;;5.60;3.45;;;;;;;;;;5024201;28;20134;-45